createdAt,value
2016-12-07T00:00:47.837Z,100.000
2016-12-07T00:03:42.806Z,100.000
2016-12-07T00:06:37.679Z,100.000
2016-12-07T00:09:32.560Z,100.000
2016-12-07T00:12:27.441Z,100.000
2016-12-07T00:15:22.260Z,100.000
2016-12-07T00:18:17.249Z,100.000
2016-12-07T00:21:12.123Z,100.000
2016-12-07T00:24:07.041Z,100.000
2016-12-07T00:27:01.788Z,100.000
2016-12-07T00:29:56.626Z,100.000
2016-12-07T00:32:51.487Z,100.000
2016-12-07T00:35:46.479Z,100.000
2016-12-07T00:38:41.350Z,100.000
2016-12-07T00:41:36.260Z,100.000
2016-12-07T00:44:31.119Z,100.000
2016-12-07T00:47:26.101Z,100.000
2016-12-07T00:50:21.026Z,100.000
2016-12-07T00:53:15.890Z,100.000
2016-12-07T00:56:10.790Z,100.000
2016-12-07T00:59:05.706Z,100.000
2016-12-07T01:02:00.638Z,100.000
2016-12-07T01:04:55.564Z,100.000
2016-12-07T01:07:50.422Z,100.000
2016-12-07T01:10:45.295Z,100.000
2016-12-07T01:13:40.321Z,100.000
2016-12-07T01:16:35.161Z,100.000
2016-12-07T01:19:30.075Z,100.000
2016-12-07T01:22:25.034Z,100.000
2016-12-07T01:25:19.854Z,100.000
2016-12-07T01:28:14.796Z,100.000
2016-12-07T01:31:09.668Z,100.000
2016-12-07T01:34:04.518Z,100.000
2016-12-07T01:36:59.401Z,100.000
2016-12-07T01:39:54.301Z,100.000
2016-12-07T01:42:49.173Z,100.000
2016-12-07T01:45:44.027Z,100.000
2016-12-07T01:48:38.895Z,100.000
2016-12-07T01:51:33.774Z,100.000
2016-12-07T01:54:28.700Z,100.000
2016-12-07T01:57:23.689Z,100.000
2016-12-07T02:00:18.592Z,100.000
2016-12-07T02:03:13.464Z,100.000
2016-12-07T02:06:08.373Z,100.000
2016-12-07T02:09:03.271Z,100.000
2016-12-07T02:11:58.110Z,100.000
2016-12-07T02:14:52.992Z,100.000
2016-12-07T02:17:47.967Z,100.000
2016-12-07T02:20:42.892Z,100.000
2016-12-07T02:23:37.725Z,100.000
2016-12-07T02:26:32.577Z,100.000
2016-12-07T02:29:27.487Z,100.000
2016-12-07T02:32:22.256Z,100.000
2016-12-07T02:35:17.083Z,100.000
2016-12-07T02:38:11.925Z,100.000
2016-12-07T02:41:06.811Z,100.000
2016-12-07T02:44:01.657Z,100.000
2016-12-07T02:46:56.542Z,100.000
2016-12-07T02:49:51.560Z,100.000
2016-12-07T02:52:46.392Z,100.000
2016-12-07T02:55:41.292Z,100.000
2016-12-07T02:58:36.251Z,100.000
2016-12-07T03:01:31.233Z,100.000
2016-12-07T03:04:26.125Z,100.000
2016-12-07T03:07:21.079Z,100.000
2016-12-07T03:10:15.904Z,100.000
2016-12-07T03:13:10.877Z,100.000
2016-12-07T03:16:05.716Z,100.000
2016-12-07T03:19:00.621Z,100.000
2016-12-07T03:21:55.435Z,100.000
2016-12-07T03:24:50.317Z,100.000
2016-12-07T03:27:45.207Z,100.000
2016-12-07T03:30:39.968Z,100.000
2016-12-07T03:33:34.792Z,100.000
2016-12-07T03:36:29.676Z,100.000
2016-12-07T03:39:24.545Z,100.000
2016-12-07T03:42:19.520Z,100.000
2016-12-07T03:45:14.338Z,100.000
2016-12-07T03:48:09.254Z,100.000
2016-12-07T03:51:04.105Z,100.000
2016-12-07T03:53:58.990Z,100.000
2016-12-07T03:56:53.870Z,100.000
2016-12-07T03:59:48.803Z,100.000
2016-12-07T04:02:43.602Z,100.000
2016-12-07T04:05:38.496Z,100.000
2016-12-07T04:08:33.254Z,100.000
2016-12-07T04:11:28.095Z,100.000
2016-12-07T04:14:22.956Z,100.000
2016-12-07T04:17:17.790Z,100.000
2016-12-07T04:20:12.698Z,100.000
2016-12-07T04:23:07.608Z,100.000
2016-12-07T04:26:02.504Z,100.000
2016-12-07T04:28:57.371Z,100.000
2016-12-07T04:31:52.165Z,100.000
2016-12-07T04:34:47.038Z,100.000
2016-12-07T04:37:41.813Z,100.000
2016-12-07T04:40:36.686Z,100.000
2016-12-07T04:43:31.552Z,100.000
2016-12-07T04:46:26.370Z,100.000
2016-12-07T04:49:21.245Z,100.000
2016-12-07T04:52:16.077Z,100.000
2016-12-07T04:55:10.887Z,100.000
2016-12-07T04:58:05.805Z,100.000
2016-12-07T05:01:00.651Z,100.000
2016-12-07T05:03:55.521Z,100.000
2016-12-07T05:06:50.463Z,100.000
2016-12-07T05:09:45.266Z,100.000
2016-12-07T05:12:40.167Z,100.000
2016-12-07T05:15:35.102Z,100.000
2016-12-07T05:18:29.792Z,100.000
2016-12-07T05:21:24.679Z,100.000
2016-12-07T05:24:19.583Z,100.000
2016-12-07T05:27:14.458Z,100.000
2016-12-07T05:30:09.317Z,100.000
2016-12-07T05:33:04.226Z,100.000
2016-12-07T05:35:59.063Z,100.000
2016-12-07T05:38:54.051Z,100.000
2016-12-07T05:41:48.837Z,100.000
2016-12-07T05:44:43.658Z,100.000
2016-12-07T05:47:38.610Z,100.000
2016-12-07T05:50:33.612Z,100.000
2016-12-07T05:53:28.384Z,100.000
2016-12-07T05:56:23.318Z,100.000
2016-12-07T05:59:18.233Z,100.000
2016-12-07T06:02:13.300Z,100.000
2016-12-07T06:05:08.067Z,100.000
2016-12-07T06:08:02.979Z,100.000
2016-12-07T06:10:57.885Z,100.000
2016-12-07T06:13:52.726Z,100.000
2016-12-07T06:16:47.614Z,100.000
2016-12-07T06:19:42.453Z,100.000
2016-12-07T06:22:37.394Z,100.000
2016-12-07T06:25:32.249Z,100.000
2016-12-07T06:28:27.107Z,100.000
2016-12-07T06:31:22.056Z,100.000
2016-12-07T06:34:16.939Z,100.000
2016-12-07T06:37:11.902Z,100.000
2016-12-07T06:40:06.698Z,100.000
2016-12-07T06:43:01.549Z,100.000
2016-12-07T06:45:56.415Z,100.000
2016-12-07T06:48:51.168Z,100.000
2016-12-07T06:51:45.923Z,100.000
2016-12-07T06:54:40.921Z,100.000
2016-12-07T06:57:35.762Z,100.000
2016-12-07T07:00:30.673Z,100.000
2016-12-07T07:03:25.506Z,100.000
2016-12-07T07:06:20.429Z,100.000
2016-12-07T07:09:15.195Z,100.000
2016-12-07T07:12:10.035Z,100.000
2016-12-07T07:15:04.976Z,100.000
2016-12-07T07:17:59.905Z,100.000
2016-12-07T07:20:54.748Z,100.000
2016-12-07T07:23:49.586Z,100.000
2016-12-07T07:26:44.451Z,100.000
2016-12-07T07:29:39.346Z,100.000
2016-12-07T07:32:34.213Z,100.000
2016-12-07T07:35:29.111Z,100.000
2016-12-07T07:38:23.978Z,100.000
2016-12-07T07:41:18.861Z,100.000
2016-12-07T07:44:13.698Z,100.000
2016-12-07T07:47:08.657Z,100.000
2016-12-07T07:50:03.517Z,100.000
2016-12-07T07:52:58.344Z,100.000
2016-12-07T07:55:53.234Z,100.000
2016-12-07T07:58:48.086Z,100.000
2016-12-07T08:01:42.944Z,100.000
2016-12-07T08:04:37.950Z,100.000
2016-12-07T08:07:32.788Z,100.000
2016-12-07T08:10:27.586Z,100.000
2016-12-07T08:13:22.509Z,100.000
2016-12-07T08:16:17.371Z,100.000
2016-12-07T08:19:12.198Z,100.000
2016-12-07T08:22:07.099Z,100.000
2016-12-07T08:25:01.953Z,100.000
2016-12-07T08:27:56.907Z,100.000
2016-12-07T08:30:51.807Z,100.000
2016-12-07T08:33:46.777Z,100.000
2016-12-07T08:36:41.734Z,100.000
2016-12-07T08:39:36.637Z,100.000
2016-12-07T08:42:31.611Z,100.000
2016-12-07T08:45:26.507Z,100.000
2016-12-07T08:48:21.468Z,100.000
2016-12-07T08:51:16.410Z,100.000
2016-12-07T08:54:11.326Z,100.000
2016-12-07T08:57:06.310Z,100.000
2016-12-07T09:00:01.284Z,100.000
2016-12-07T09:02:56.154Z,100.000
2016-12-07T09:05:51.036Z,100.000
2016-12-07T09:08:46.127Z,100.000
2016-12-07T09:11:41.181Z,100.000
2016-12-07T09:14:36.174Z,100.000
2016-12-07T09:17:31.190Z,100.000
2016-12-07T09:20:26.220Z,99.966
2016-12-07T09:23:21.281Z,99.840
2016-12-07T09:26:16.373Z,98.936
2016-12-07T09:29:11.368Z,97.772
2016-12-07T09:32:06.429Z,97.558
2016-12-07T09:35:01.490Z,97.662
2016-12-07T09:37:56.530Z,96.135
2016-12-07T09:40:51.581Z,96.333
2016-12-07T09:43:46.637Z,95.285
2016-12-07T09:46:41.564Z,96.586
2016-12-07T09:49:36.612Z,95.482
2016-12-07T09:52:31.596Z,94.404
2016-12-07T09:55:26.721Z,93.140
2016-12-07T09:58:21.642Z,92.491
2016-12-07T10:01:16.665Z,91.990
2016-12-07T10:04:11.727Z,91.364
2016-12-07T10:07:06.802Z,91.168
2016-12-07T10:10:01.824Z,91.912
2016-12-07T10:12:56.986Z,92.851
2016-12-07T10:15:52.055Z,92.750
2016-12-07T10:18:47.116Z,93.220
2016-12-07T10:21:42.090Z,93.607
2016-12-07T10:24:37.215Z,93.749
2016-12-07T10:27:32.215Z,93.340
2016-12-07T10:30:27.231Z,95.183
2016-12-07T10:33:22.325Z,94.890
2016-12-07T10:36:17.369Z,94.720
2016-12-07T10:39:12.315Z,94.227
2016-12-07T10:42:07.327Z,94.479
2016-12-07T10:45:02.244Z,94.328
2016-12-07T10:47:57.148Z,94.752
2016-12-07T10:50:52.092Z,94.189
2016-12-07T10:53:47.050Z,95.236
2016-12-07T10:56:41.947Z,95.272
2016-12-07T10:59:36.997Z,95.469
2016-12-07T11:02:31.935Z,95.966
2016-12-07T11:05:27.064Z,96.467
2016-12-07T11:08:21.893Z,96.875
2016-12-07T11:11:16.895Z,96.695
2016-12-07T11:14:11.841Z,96.533
2016-12-07T11:17:06.817Z,96.494
2016-12-07T11:20:01.781Z,95.893
2016-12-07T11:22:56.749Z,95.562
2016-12-07T11:25:51.732Z,95.203
2016-12-07T11:28:46.784Z,94.615
2016-12-07T11:31:41.786Z,94.357
2016-12-07T11:34:36.790Z,93.143
2016-12-07T11:37:31.841Z,92.829
2016-12-07T11:40:26.959Z,92.056
2016-12-07T11:43:21.937Z,91.663
2016-12-07T11:46:17.043Z,92.035
2016-12-07T11:49:12.044Z,92.339
2016-12-07T11:52:07.164Z,92.348
2016-12-07T11:55:02.253Z,91.408
2016-12-07T11:57:57.308Z,91.726
2016-12-07T12:00:52.350Z,92.018
2016-12-07T12:03:47.453Z,92.456
2016-12-07T12:06:42.317Z,93.020
2016-12-07T12:09:37.408Z,92.585
2016-12-07T12:12:32.330Z,92.834
2016-12-07T12:15:27.359Z,92.819
2016-12-07T12:18:22.276Z,93.053
2016-12-07T12:21:17.352Z,92.059
2016-12-07T12:24:12.696Z,92.316
2016-12-07T12:27:07.519Z,91.933
2016-12-07T12:30:02.527Z,91.782
2016-12-07T12:32:57.598Z,91.063
2016-12-07T12:35:52.699Z,91.102
2016-12-07T12:38:47.747Z,90.274
2016-12-07T12:41:42.804Z,89.843
2016-12-07T12:44:37.892Z,90.506
2016-12-07T12:47:32.915Z,90.093
2016-12-07T12:50:28.096Z,89.301
2016-12-07T12:53:23.111Z,90.517
2016-12-07T12:56:18.158Z,90.844
2016-12-07T12:59:13.201Z,90.351
2016-12-07T13:02:08.256Z,90.610
2016-12-07T13:05:03.224Z,90.857
2016-12-07T13:07:58.285Z,90.056
2016-12-07T13:10:53.301Z,89.538
2016-12-07T13:13:48.304Z,89.594
2016-12-07T13:16:43.282Z,89.757
2016-12-07T13:19:38.382Z,89.311
2016-12-07T13:22:33.426Z,88.493
2016-12-07T13:25:28.448Z,88.860
2016-12-07T13:28:23.427Z,89.690
2016-12-07T13:31:18.351Z,88.662
2016-12-07T13:34:13.395Z,88.617
2016-12-07T13:37:08.430Z,89.510
2016-12-07T13:40:03.395Z,89.047
2016-12-07T13:42:58.384Z,89.152
2016-12-07T13:45:53.248Z,89.680
2016-12-07T13:48:48.241Z,89.314
2016-12-07T13:51:43.200Z,89.729
2016-12-07T13:54:38.162Z,89.942
2016-12-07T13:57:33.097Z,89.632
2016-12-07T14:00:28.086Z,90.554
2016-12-07T14:03:23.057Z,90.154
2016-12-07T14:06:18.062Z,90.169
2016-12-07T14:09:13.059Z,90.605
2016-12-07T14:12:08.066Z,90.385
2016-12-07T14:15:03.039Z,90.587
2016-12-07T14:17:58.028Z,90.119
2016-12-07T14:20:52.965Z,90.243
2016-12-07T14:23:48.029Z,90.457
2016-12-07T14:26:43.016Z,89.973
2016-12-07T14:29:38.024Z,90.474
2016-12-07T14:32:32.917Z,90.193
2016-12-07T14:35:27.742Z,90.562
2016-12-07T14:38:22.655Z,90.614
2016-12-07T14:41:17.755Z,90.827
2016-12-07T14:44:12.701Z,91.138
2016-12-07T14:47:07.665Z,90.925
2016-12-07T14:50:02.531Z,90.889
2016-12-07T14:52:57.574Z,91.202
2016-12-07T14:55:52.462Z,90.962
2016-12-07T14:58:47.440Z,91.076
2016-12-07T15:01:42.304Z,91.448
2016-12-07T15:04:37.218Z,91.137
2016-12-07T15:07:32.168Z,91.153
2016-12-07T15:10:27.174Z,91.790
2016-12-07T15:13:22.111Z,91.307
2016-12-07T15:16:17.115Z,91.102
2016-12-07T15:19:12.011Z,91.343
2016-12-07T15:22:06.997Z,90.934
2016-12-07T15:25:01.959Z,90.748
2016-12-07T15:27:56.961Z,90.804
2016-12-07T15:30:51.860Z,90.849
2016-12-07T15:33:46.890Z,91.022
2016-12-07T15:36:41.856Z,91.049
2016-12-07T15:39:36.783Z,90.507
2016-12-07T15:42:31.762Z,90.827
2016-12-07T15:45:26.647Z,91.098
2016-12-07T15:48:21.643Z,91.012
2016-12-07T15:51:16.706Z,90.802
2016-12-07T15:54:11.651Z,91.259
2016-12-07T15:57:06.538Z,91.221
2016-12-07T16:00:01.472Z,91.106
2016-12-07T16:02:56.542Z,90.902
2016-12-07T16:05:51.510Z,90.890
2016-12-07T16:08:46.493Z,90.517
2016-12-07T16:11:41.445Z,90.806
2016-12-07T16:14:36.399Z,90.574
2016-12-07T16:17:31.378Z,90.746
2016-12-07T16:20:26.252Z,91.074
2016-12-07T16:23:21.153Z,90.968
2016-12-07T16:26:16.190Z,91.219
2016-12-07T16:29:11.176Z,91.011
2016-12-07T16:32:06.193Z,91.250
2016-12-07T16:35:01.157Z,91.294
2016-12-07T16:37:56.106Z,91.318
2016-12-07T16:40:51.089Z,90.991
2016-12-07T16:43:46.027Z,91.293
2016-12-07T16:46:40.958Z,91.191
2016-12-07T16:49:35.910Z,91.330
2016-12-07T16:52:30.954Z,91.170
2016-12-07T16:55:25.891Z,91.273
2016-12-07T16:58:20.984Z,91.178
2016-12-07T17:01:15.932Z,91.268
2016-12-07T17:04:10.931Z,91.250
2016-12-07T17:07:05.904Z,91.334
2016-12-07T17:10:00.978Z,91.737
2016-12-07T17:12:56.069Z,91.601
2016-12-07T17:15:50.995Z,91.987
2016-12-07T17:18:45.876Z,92.708
2016-12-07T17:21:40.981Z,92.275
2016-12-07T17:24:35.895Z,92.169
2016-12-07T17:27:30.910Z,92.251
2016-12-07T17:30:26.026Z,92.291
2016-12-07T17:33:20.836Z,92.137
2016-12-07T17:36:16.072Z,92.361
2016-12-07T17:39:10.940Z,92.064
2016-12-07T17:42:05.884Z,92.463
2016-12-07T17:45:00.865Z,92.553
2016-12-07T17:47:55.907Z,92.781
2016-12-07T17:50:50.859Z,93.381
2016-12-07T17:53:45.814Z,93.570
2016-12-07T17:56:40.921Z,94.083
2016-12-07T17:59:36.134Z,94.458
2016-12-07T18:02:30.969Z,94.773
2016-12-07T18:05:25.815Z,94.662
2016-12-07T18:08:20.787Z,95.331
2016-12-07T18:11:15.986Z,95.159
2016-12-07T18:14:10.905Z,95.858
2016-12-07T18:17:05.900Z,95.855
2016-12-07T18:20:00.794Z,96.380
2016-12-07T18:22:55.918Z,96.463
2016-12-07T18:25:50.870Z,96.230
2016-12-07T18:28:45.927Z,96.789
2016-12-07T18:31:40.881Z,96.513
2016-12-07T18:34:35.899Z,96.563
2016-12-07T18:37:30.874Z,97.057
2016-12-07T18:40:25.962Z,96.750
2016-12-07T18:43:21.031Z,98.143
2016-12-07T18:46:16.313Z,98.341
2016-12-07T18:49:11.144Z,98.013
2016-12-07T18:52:06.129Z,97.840
2016-12-07T18:55:01.117Z,98.332
2016-12-07T18:57:56.335Z,97.885
2016-12-07T19:00:51.195Z,97.717
2016-12-07T19:03:46.217Z,97.466
2016-12-07T19:06:41.215Z,98.526
2016-12-07T19:09:36.134Z,97.636
2016-12-07T19:12:31.308Z,97.726
2016-12-07T19:15:26.264Z,97.975
2016-12-07T19:18:21.213Z,98.500
2016-12-07T19:21:16.318Z,97.722
2016-12-07T19:24:11.247Z,98.070
2016-12-07T19:27:06.296Z,97.919
2016-12-07T19:30:01.213Z,98.415
2016-12-07T19:32:56.329Z,98.558
2016-12-07T19:35:51.351Z,98.453
2016-12-07T19:38:46.391Z,98.267
2016-12-07T19:41:41.445Z,97.758
2016-12-07T19:44:36.488Z,98.142
2016-12-07T19:47:31.404Z,98.244
2016-12-07T19:50:26.441Z,97.976
2016-12-07T19:53:21.476Z,97.575
2016-12-07T19:56:16.532Z,97.443
2016-12-07T19:59:11.515Z,97.085
2016-12-07T20:02:06.665Z,97.281
2016-12-07T20:05:01.692Z,97.278
2016-12-07T20:07:56.704Z,97.637
2016-12-07T20:10:51.727Z,97.067
2016-12-07T20:13:46.797Z,97.164
2016-12-07T20:16:41.812Z,96.867
2016-12-07T20:19:36.924Z,96.885
2016-12-07T20:22:31.937Z,96.480
2016-12-07T20:25:27.142Z,96.434
2016-12-07T20:28:22.244Z,97.794
2016-12-07T20:31:17.302Z,98.382
2016-12-07T20:34:12.424Z,96.411
2016-12-07T20:37:07.615Z,96.086
2016-12-07T20:40:02.570Z,95.372
2016-12-07T20:42:57.663Z,95.501
2016-12-07T20:45:52.764Z,95.583
2016-12-07T20:48:47.811Z,95.973
2016-12-07T20:51:42.838Z,96.025
2016-12-07T20:54:38.013Z,96.462
2016-12-07T20:57:33.084Z,97.333
2016-12-07T21:00:28.277Z,97.242
2016-12-07T21:03:23.342Z,97.066
2016-12-07T21:06:18.479Z,96.916
2016-12-07T21:09:13.524Z,96.853
2016-12-07T21:12:08.652Z,97.354
2016-12-07T21:15:03.770Z,96.613
2016-12-07T21:17:58.859Z,96.257
2016-12-07T21:20:53.985Z,96.174
2016-12-07T21:23:49.158Z,96.237
2016-12-07T21:26:44.223Z,95.122
2016-12-07T21:29:39.316Z,95.185
2016-12-07T21:32:34.396Z,95.345
2016-12-07T21:35:29.470Z,95.873
2016-12-07T21:38:24.491Z,95.843
2016-12-07T21:41:19.673Z,96.357
2016-12-07T21:44:14.652Z,95.799
2016-12-07T21:47:09.744Z,96.153
2016-12-07T21:50:04.895Z,96.088
2016-12-07T21:53:00.000Z,95.911
2016-12-07T21:55:55.060Z,96.024
2016-12-07T21:58:50.144Z,96.417
2016-12-07T22:01:45.199Z,96.131
2016-12-07T22:04:40.269Z,96.460
2016-12-07T22:07:35.398Z,96.033
2016-12-07T22:10:30.496Z,96.048
2016-12-07T22:13:25.436Z,95.940
2016-12-07T22:16:20.552Z,96.097
2016-12-07T22:19:15.649Z,96.130
2016-12-07T22:22:10.707Z,96.245
2016-12-07T22:25:05.768Z,96.543
2016-12-07T22:28:00.858Z,96.547
2016-12-07T22:30:55.895Z,96.945
2016-12-07T22:33:50.970Z,96.138
2016-12-07T22:36:46.043Z,97.110
2016-12-07T22:39:41.193Z,96.632
2016-12-07T22:42:36.222Z,96.613
2016-12-07T22:45:31.281Z,96.815
2016-12-07T22:48:26.299Z,97.404
2016-12-07T22:51:21.411Z,97.637
2016-12-07T22:54:16.447Z,97.477
2016-12-07T22:57:11.531Z,97.611
2016-12-07T23:00:06.515Z,98.057
2016-12-07T23:03:01.601Z,97.569
2016-12-07T23:05:56.595Z,97.839
2016-12-07T23:08:51.677Z,97.719
2016-12-07T23:11:46.724Z,97.311
2016-12-07T23:14:41.858Z,97.267
2016-12-07T23:17:37.000Z,97.135
2016-12-07T23:20:32.045Z,97.435
2016-12-07T23:23:27.087Z,97.072
2016-12-07T23:26:22.140Z,97.875
2016-12-07T23:29:17.170Z,98.194
2016-12-07T23:32:12.217Z,98.218
2016-12-07T23:35:07.269Z,97.931
2016-12-07T23:38:02.329Z,98.854
2016-12-07T23:40:57.364Z,99.209
2016-12-07T23:43:52.389Z,99.165
2016-12-07T23:46:47.386Z,99.177
2016-12-07T23:49:42.361Z,99.734
2016-12-07T23:52:37.404Z,99.802
2016-12-07T23:55:32.368Z,99.918
2016-12-07T23:58:27.396Z,100.000
